Time;durP1;ratioP1;P1;durP2;ratioP2;P2;SDS_P1;SDS_P2;PMS_P1;PMS_P2;Temp;Humidity;BMP_temperature;BMP_pressure;BME280_temperature;BME280_humidity;BME280_pressure;Samples;Min_cycle;Max_cycle;Signal;HPM_P1;HPM_P2
2022/03/16 00:00:00;;;;;;;20.53;13.37;;;7.40;99.90;;;;;;5012585;28;20221;-38
2022/03/16 00:02:26;;;;;;;26.70;13.07;;;7.40;99.90;;;;;;5030106;28;20178;-35
2022/03/16 00:04:54;;;;;;;33.43;12.77;;;7.40;99.90;;;;;;5032388;28;20184;-39
2022/03/16 00:07:21;;;;;;;25.37;10.73;;;7.40;99.90;;;;;;5033020;28;20212;-35
2022/03/16 00:09:47;;;;;;;19.83;10.63;;;7.30;99.90;;;;;;5033067;28;20670;-35
2022/03/16 00:12:14;;;;;;;29.00;11.67;;;7.30;99.90;;;;;;5032983;28;20181;-38
2022/03/16 00:14:41;;;;;;;12.17;10.10;;;7.30;99.90;;;;;;5016136;28;20179;-35
2022/03/16 00:17:07;;;;;;;10.53;9.43;;;7.20;99.90;;;;;;5032704;28;20269;-35
2022/03/16 00:19:34;;;;;;;12.23;9.87;;;7.30;99.90;;;;;;5034212;28;20206;-37
2022/03/16 00:22:02;;;;;;;14.03;11.90;;;7.30;99.90;;;;;;5032723;28;20190;-35
2022/03/16 00:24:28;;;;;;;11.90;10.03;;;7.30;99.90;;;;;;5033178;28;20206;-37
2022/03/16 00:26:54;;;;;;;14.10;11.03;;;7.30;99.90;;;;;;5033113;28;20255;-37
2022/03/16 00:29:20;;;;;;;12.57;10.73;;;7.30;99.90;;;;;;5032523;28;20226;-37
2022/03/16 00:31:46;;;;;;;13.73;10.80;;;7.30;99.90;;;;;;5032690;28;20186;-35
2022/03/16 00:34:13;;;;;;;13.53;10.20;;;7.30;99.90;;;;;;5032475;28;20178;-37
2022/03/16 00:36:39;;;;;;;16.63;11.40;;;7.30;99.90;;;;;;5032612;28;20177;-35
2022/03/16 00:39:06;;;;;;;18.63;13.13;;;7.30;99.90;;;;;;5032511;28;20210;-38
2022/03/16 00:41:35;;;;;;;18.20;13.07;;;7.20;99.90;;;;;;5033646;28;20179;-37
2022/03/16 00:44:02;;;;;;;14.97;13.07;;;7.20;99.90;;;;;;5031681;28;20780;-35
2022/03/16 00:46:28;;;;;;;15.60;12.83;;;7.20;99.90;;;;;;5033407;28;20217;-35
2022/03/16 00:48:53;;;;;;;17.60;12.93;;;7.20;99.90;;;;;;5048312;28;20209;-38
2022/03/16 00:51:20;;;;;;;16.40;12.90;;;7.30;99.90;;;;;;5031079;28;20186;-35
2022/03/16 00:53:46;;;;;;;13.43;11.10;;;7.40;99.90;;;;;;5048939;28;20185;-37
2022/03/16 00:56:12;;;;;;;11.93;10.43;;;7.40;99.90;;;;;;5031782;28;20185;-38
2022/03/16 00:58:39;;;;;;;11.80;10.57;;;7.40;99.90;;;;;;5032184;28;20196;-38
2022/03/16 01:01:05;;;;;;;11.50;9.90;;;7.50;99.90;;;;;;5031823;28;20212;-38
2022/03/16 01:03:32;;;;;;;14.47;10.67;;;7.50;99.90;;;;;;5032447;28;20232;-35
2022/03/16 01:05:58;;;;;;;14.70;10.67;;;7.50;99.90;;;;;;5048586;28;20194;-35
2022/03/16 01:08:24;;;;;;;14.53;10.60;;;7.50;99.90;;;;;;5031830;28;20219;-35
2022/03/16 01:10:50;;;;;;;13.67;11.07;;;7.50;99.90;;;;;;5031108;28;20202;-36
2022/03/16 01:13:17;;;;;;;15.07;12.30;;;7.50;99.90;;;;;;5031874;28;20209;-35
2022/03/16 01:15:44;;;;;;;14.93;11.77;;;7.50;99.90;;;;;;5030376;28;20183;-35
2022/03/16 01:18:10;;;;;;;13.47;11.37;;;7.50;99.90;;;;;;5031509;28;20182;-37
2022/03/16 01:20:36;;;;;;;13.23;11.07;;;7.60;99.90;;;;;;5031591;28;20212;-38
2022/03/16 01:23:02;;;;;;;12.90;11.27;;;7.60;99.90;;;;;;5048312;28;20178;-35
2022/03/16 01:25:28;;;;;;;13.50;11.47;;;7.60;99.90;;;;;;5048148;28;20191;-35
2022/03/16 01:27:54;;;;;;;15.33;12.20;;;7.60;99.90;;;;;;5031272;28;20754;-37
2022/03/16 01:30:21;;;;;;;16.40;11.90;;;7.70;99.90;;;;;;5032546;28;20281;-35
2022/03/16 01:32:47;;;;;;;15.73;12.00;;;7.70;99.90;;;;;;5031113;28;20179;-38
2022/03/16 01:35:13;;;;;;;13.93;11.43;;;7.70;99.90;;;;;;5032774;28;20174;-38
2022/03/16 01:37:43;;;;;;;14.17;11.50;;;7.70;99.90;;;;;;5031571;28;20201;-35
2022/03/16 01:40:10;;;;;;;14.73;12.07;;;7.70;99.90;;;;;;5014424;28;20202;-39
2022/03/16 01:42:36;;;;;;;14.73;11.97;;;7.70;99.90;;;;;;5031398;28;20183;-35
2022/03/16 01:45:04;;;;;;;16.20;12.70;;;7.70;99.90;;;;;;5031571;28;20273;-40
2022/03/16 01:47:31;;;;;;;17.80;12.97;;;7.70;99.90;;;;;;5031158;28;20229;-35
2022/03/16 01:49:57;;;;;;;23.90;15.97;;;7.70;99.90;;;;;;5030938;28;20313;-35
2022/03/16 01:52:25;;;;;;;26.13;17.33;;;7.80;99.90;;;;;;5047520;28;20178;-35
2022/03/16 01:54:52;;;;;;;26.90;18.87;;;7.80;99.90;;;;;;5031108;28;20245;-35
2022/03/16 01:57:18;;;;;;;26.37;20.37;;;7.80;99.90;;;;;;5014591;28;20197;-36
2022/03/16 01:59:45;;;;;;;29.67;19.93;;;7.80;99.90;;;;;;5030629;28;20287;-35
2022/03/16 02:02:14;;;;;;;25.63;18.67;;;7.80;99.90;;;;;;5015240;28;20184;-35
2022/03/16 02:04:41;;;;;;;27.00;18.07;;;7.90;99.90;;;;;;5030572;28;20197;-35
2022/03/16 02:07:07;;;;;;;25.43;18.07;;;7.90;99.90;;;;;;5030431;28;20218;-36
2022/03/16 02:09:33;;;;;;;27.13;19.23;;;7.90;99.90;;;;;;5030054;28;20229;-35
2022/03/16 02:11:59;;;;;;;28.37;19.40;;;7.90;99.90;;;;;;5014070;28;20202;-35
2022/03/16 02:14:25;;;;;;;30.43;21.33;;;7.90;99.90;;;;;;5030403;28;20224;-35
2022/03/16 02:16:51;;;;;;;35.53;22.43;;;8.00;99.90;;;;;;5030546;28;20175;-35
2022/03/16 02:19:17;;;;;;;32.60;21.47;;;8.00;99.90;;;;;;5013945;28;20204;-35
2022/03/16 02:21:49;;;;;;;33.20;22.43;;;8.00;99.90;;;;;;5013808;28;20179;-35
2022/03/16 02:24:16;;;;;;;32.43;22.30;;;8.00;99.90;;;;;;5013640;28;20210;-35
2022/03/16 02:26:41;;;;;;;37.97;24.03;;;8.00;99.90;;;;;;5029885;28;20191;-35
2022/03/16 02:29:07;;;;;;;40.70;26.67;;;8.00;99.90;;;;;;5031194;28;20210;-35
2022/03/16 02:31:33;;;;;;;45.17;28.23;;;8.00;99.90;;;;;;5046804;28;20178;-35
2022/03/16 02:33:59;;;;;;;43.57;27.60;;;8.00;99.90;;;;;;5013689;28;20193;-35
2022/03/16 02:36:25;;;;;;;44.13;27.40;;;8.00;99.90;;;;;;5030349;28;20182;-37
2022/03/16 02:38:51;;;;;;;45.40;26.90;;;8.00;99.90;;;;;;5013477;28;20677;-35
2022/03/16 02:41:17;;;;;;;45.83;27.87;;;8.00;99.90;;;;;;5030303;28;20190;-35
2022/03/16 02:43:43;;;;;;;45.97;28.50;;;8.00;99.90;;;;;;5013628;28;20704;-35
2022/03/16 02:46:09;;;;;;;49.53;29.37;;;8.00;99.90;;;;;;5013051;28;20186;-35
2022/03/16 02:48:35;;;;;;;48.27;28.03;;;8.00;99.90;;;;;;5029762;28;20206;-37
2022/03/16 02:51:01;;;;;;;45.30;27.10;;;8.00;99.90;;;;;;5013183;28;20210;-38
2022/03/16 02:53:26;;;;;;;47.33;28.73;;;8.00;99.90;;;;;;5030122;28;20186;-38
2022/03/16 02:55:52;;;;;;;44.20;28.03;;;8.00;99.90;;;;;;5029893;28;20532;-38
2022/03/16 02:58:18;;;;;;;44.47;27.57;;;8.00;99.90;;;;;;5031118;28;20175;-38
2022/03/16 03:00:45;;;;;;;48.30;28.23;;;8.00;99.90;;;;;;5012894;28;20218;-38
2022/03/16 03:03:11;;;;;;;51.60;29.23;;;8.10;99.90;;;;;;5046839;28;20232;-35
2022/03/16 03:05:37;;;;;;;49.73;29.03;;;8.00;99.90;;;;;;5029630;28;20186;-37
2022/03/16 03:08:04;;;;;;;50.67;29.33;;;8.10;99.90;;;;;;5029544;28;20222;-38
2022/03/16 03:10:30;;;;;;;49.03;28.73;;;8.10;99.90;;;;;;5029730;28;20205;-38
2022/03/16 03:12:55;;;;;;;44.47;27.17;;;8.10;99.90;;;;;;5029828;28;20184;-35
2022/03/16 03:15:21;;;;;;;49.07;29.63;;;8.00;99.90;;;;;;5029861;28;20324;-36
2022/03/16 03:17:47;;;;;;;46.80;27.77;;;8.10;99.90;;;;;;5029632;28;20248;-35
2022/03/16 03:20:13;;;;;;;45.33;27.73;;;8.10;99.90;;;;;;5029256;28;20273;-36
2022/03/16 03:22:40;;;;;;;44.93;27.27;;;8.10;99.90;;;;;;5013482;28;20274;-35
2022/03/16 03:25:10;;;;;;;48.43;28.07;;;8.10;99.90;;;;;;5013221;28;20182;-35
2022/03/16 03:27:36;;;;;;;45.07;27.17;;;8.00;99.90;;;;;;5031338;28;20194;-35
2022/03/16 03:30:03;;;;;;;44.97;26.70;;;8.00;99.90;;;;;;5029611;28;20221;-35
2022/03/16 03:32:29;;;;;;;44.27;26.90;;;8.00;99.90;;;;;;5030113;28;20174;-35
2022/03/16 03:34:55;;;;;;;49.77;27.83;;;8.00;99.90;;;;;;5029724;28;20240;-35
2022/03/16 03:37:22;;;;;;;49.33;28.07;;;8.00;99.90;;;;;;5029934;28;20189;-35
2022/03/16 03:39:48;;;;;;;50.87;29.33;;;7.90;99.90;;;;;;5031037;28;20210;-35
2022/03/16 03:42:14;;;;;;;49.93;27.70;;;7.90;99.90;;;;;;5035269;28;20179;-35
2022/03/16 03:44:40;;;;;;;49.83;28.47;;;8.00;99.90;;;;;;5017320;28;20175;-35
2022/03/16 03:47:08;;;;;;;51.80;28.70;;;8.00;99.90;;;;;;5033461;28;20182;-35
2022/03/16 03:49:35;;;;;;;51.83;29.80;;;7.90;99.90;;;;;;5033017;28;20198;-35
2022/03/16 03:52:03;;;;;;;48.77;27.90;;;7.90;99.90;;;;;;5033182;28;20179;-38
2022/03/16 03:54:29;;;;;;;49.27;29.13;;;7.90;99.90;;;;;;5016865;28;20313;-38
2022/03/16 03:56:56;;;;;;;46.60;27.97;;;7.90;99.90;;;;;;5016770;28;20181;-38
2022/03/16 03:59:23;;;;;;;45.23;26.60;;;8.00;99.90;;;;;;5032617;28;20225;-38
2022/03/16 04:01:49;;;;;;;46.03;27.57;;;8.00;99.90;;;;;;5033354;28;20175;-36
2022/03/16 04:04:15;;;;;;;47.87;28.53;;;8.00;99.90;;;;;;5049424;28;20178;-36
2022/03/16 04:06:41;;;;;;;44.67;25.07;;;7.90;99.90;;;;;;5032755;28;20171;-35
2022/03/16 04:09:07;;;;;;;43.13;25.77;;;7.90;99.90;;;;;;5049341;28;20207;-36
2022/03/16 04:11:33;;;;;;;43.43;26.73;;;7.90;99.90;;;;;;5032870;28;20186;-35
2022/03/16 04:13:59;;;;;;;45.77;27.13;;;7.90;99.90;;;;;;5032771;28;20183;-36
2022/03/16 04:16:25;;;;;;;48.37;26.93;;;7.90;99.90;;;;;;5032594;28;20518;-37
2022/03/16 04:18:51;;;;;;;44.70;27.30;;;7.90;99.90;;;;;;5049299;28;20182;-36
2022/03/16 04:21:17;;;;;;;43.50;26.63;;;7.90;99.90;;;;;;5032288;28;20194;-35
2022/03/16 04:23:43;;;;;;;45.63;27.23;;;7.90;99.90;;;;;;5032602;28;20182;-35
2022/03/16 04:26:09;;;;;;;44.63;26.63;;;7.90;99.90;;;;;;5049140;28;20275;-36
2022/03/16 04:28:35;;;;;;;44.33;26.37;;;7.90;99.90;;;;;;5032369;28;20230;-36
2022/03/16 04:31:01;;;;;;;47.13;27.03;;;7.90;99.90;;;;;;5048957;28;20194;-36
2022/03/16 04:33:28;;;;;;;46.37;26.57;;;7.90;99.90;;;;;;5032465;28;20186;-36
2022/03/16 04:35:54;;;;;;;48.90;27.30;;;8.00;99.90;;;;;;5049321;28;20175;-36
2022/03/16 04:38:20;;;;;;;44.87;27.10;;;7.90;99.90;;;;;;5048397;28;20186;-36
2022/03/16 04:40:47;;;;;;;43.43;26.27;;;8.00;99.90;;;;;;5048765;28;20202;-36
2022/03/16 04:43:13;;;;;;;43.40;26.53;;;8.00;99.90;;;;;;5032521;28;20174;-35
2022/03/16 04:45:40;;;;;;;45.03;26.87;;;8.00;99.90;;;;;;5032413;28;20181;-35
2022/03/16 04:48:11;;;;;;;43.40;26.10;;;7.90;99.90;;;;;;5031977;28;20210;-36
2022/03/16 04:50:41;;;;;;;42.63;25.87;;;8.00;99.90;;;;;;5048200;28;20190;-35
2022/03/16 04:53:07;;;;;;;45.87;27.00;;;7.90;99.90;;;;;;5048638;28;20179;-36
2022/03/16 04:55:36;;;;;;;44.57;26.93;;;7.90;99.90;;;;;;5032595;28;20182;-36
2022/03/16 04:58:08;;;;;;;50.13;29.30;;;7.90;99.90;;;;;;5048685;28;20186;-36
2022/03/16 05:00:38;;;;;;;52.53;28.80;;;7.90;99.90;;;;;;5031732;28;20225;-35
2022/03/16 05:03:04;;;;;;;42.67;26.97;;;7.90;99.90;;;;;;5032363;28;20223;-38
2022/03/16 05:05:31;;;;;;;45.60;27.40;;;7.90;99.90;;;;;;5031864;28;20190;-38
2022/03/16 05:07:57;;;;;;;50.63;28.30;;;7.90;99.90;;;;;;5031929;28;20221;-38
2022/03/16 05:10:24;;;;;;;46.13;27.87;;;7.90;99.90;;;;;;5047889;28;20199;-38
2022/03/16 05:12:50;;;;;;;46.27;28.20;;;7.90;99.90;;;;;;5031644;28;20182;-38
2022/03/16 05:15:18;;;;;;;47.57;28.90;;;7.90;99.90;;;;;;5031497;28;20221;-38
2022/03/16 05:17:45;;;;;;;44.50;26.33;;;7.90;99.90;;;;;;5048471;28;20224;-38
2022/03/16 05:20:12;;;;;;;48.30;28.97;;;7.90;99.90;;;;;;5031372;28;20198;-38
2022/03/16 05:22:41;;;;;;;50.43;29.70;;;7.90;99.90;;;;;;5032887;28;20661;-38
2022/03/16 05:25:08;;;;;;;51.73;30.40;;;7.90;99.90;;;;;;5031265;28;20179;-38
2022/03/16 05:27:34;;;;;;;50.20;29.43;;;7.90;99.90;;;;;;5031250;28;20206;-38
2022/03/16 05:30:00;;;;;;;58.67;31.47;;;7.90;99.90;;;;;;5030996;28;20214;-38
2022/03/16 05:32:26;;;;;;;56.77;30.00;;;7.80;99.90;;;;;;5048052;28;20679;-40
2022/03/16 05:34:51;;;;;;;50.93;29.53;;;7.80;99.90;;;;;;5031726;28;20208;-38
2022/03/16 05:37:17;;;;;;;49.87;28.33;;;7.80;99.90;;;;;;5048017;28;20177;-40
2022/03/16 05:39:43;;;;;;;52.17;28.63;;;7.80;99.90;;;;;;5047632;28;20205;-38
2022/03/16 05:42:09;;;;;;;49.93;28.77;;;7.80;99.90;;;;;;5046441;28;20209;-38
2022/03/16 05:44:35;;;;;;;47.47;27.43;;;7.80;99.90;;;;;;5032381;28;20186;-38
2022/03/16 05:47:01;;;;;;;51.23;28.67;;;7.80;99.90;;;;;;5047845;28;20181;-38
2022/03/16 05:49:28;;;;;;;46.70;28.30;;;7.90;99.90;;;;;;5031106;28;20206;-38
2022/03/16 05:51:54;;;;;;;50.77;28.57;;;7.90;99.90;;;;;;5033035;28;20213;-38
2022/03/16 05:54:20;;;;;;;48.80;28.60;;;7.90;99.90;;;;;;5033048;28;20181;-38
2022/03/16 05:56:47;;;;;;;50.47;29.77;;;7.90;99.90;;;;;;5049364;28;20593;-38
2022/03/16 05:59:13;;;;;;;53.70;31.87;;;7.90;99.90;;;;;;5048806;28;20218;-39
2022/03/16 06:01:39;;;;;;;52.80;32.00;;;7.90;99.90;;;;;;5032192;28;20324;-38
2022/03/16 06:04:06;;;;;;;52.87;31.93;;;7.90;99.90;;;;;;5033242;28;20197;-39
2022/03/16 06:06:32;;;;;;;53.77;31.97;;;8.00;99.90;;;;;;5016159;28;20548;-40
2022/03/16 06:08:58;;;;;;;54.87;32.93;;;8.00;99.90;;;;;;5032514;28;20209;-38
2022/03/16 06:11:24;;;;;;;63.07;34.10;;;8.00;99.90;;;;;;5030668;28;20175;-38
2022/03/16 06:13:53;;;;;;;66.53;37.40;;;8.00;99.90;;;;;;5030500;28;20549;-38
2022/03/16 06:16:19;;;;;;;55.97;32.70;;;8.00;99.90;;;;;;5014001;28;20185;-37
2022/03/16 06:18:44;;;;;;;55.57;32.20;;;8.00;99.90;;;;;;5030464;28;20189;-37
2022/03/16 06:21:10;;;;;;;50.20;30.30;;;8.00;99.90;;;;;;5031799;28;20236;-38
2022/03/16 06:23:37;;;;;;;55.87;32.03;;;8.00;99.90;;;;;;5014256;28;20179;-38
2022/03/16 06:26:05;;;;;;;54.17;31.03;;;8.00;99.90;;;;;;5030496;28;20206;-37
2022/03/16 06:28:33;;;;;;;53.57;30.50;;;8.00;99.90;;;;;;5014120;28;20225;-38
2022/03/16 06:30:59;;;;;;;52.30;30.57;;;8.00;99.90;;;;;;5030135;28;20282;-39
2022/03/16 06:33:25;;;;;;;50.57;29.90;;;8.10;99.90;;;;;;5013715;28;20270;-39
2022/03/16 06:35:51;;;;;;;58.77;33.40;;;8.10;99.90;;;;;;5013592;28;20189;-40
2022/03/16 06:38:17;;;;;;;63.53;33.43;;;8.10;99.90;;;;;;5046774;28;20179;-38
2022/03/16 06:40:43;;;;;;;59.23;33.70;;;8.10;99.90;;;;;;5029757;28;20198;-40
2022/03/16 06:43:08;;;;;;;57.23;32.70;;;8.10;99.90;;;;;;5029956;28;20193;-39
2022/03/16 06:45:34;;;;;;;62.47;34.13;;;8.10;99.90;;;;;;5030262;28;20186;-43
2022/03/16 06:48:02;;;;;;;55.33;32.77;;;8.10;99.90;;;;;;5031714;28;20214;-39
2022/03/16 06:50:29;;;;;;;59.40;33.77;;;8.10;99.90;;;;;;5029599;28;20199;-38
2022/03/16 06:52:56;;;;;;;57.03;32.30;;;8.10;99.90;;;;;;5029903;28;20236;-39
2022/03/16 06:55:22;;;;;;;53.83;32.97;;;8.10;99.90;;;;;;5030099;28;20189;-37
2022/03/16 06:57:48;;;;;;;65.83;33.93;;;8.10;99.90;;;;;;5028608;28;20198;-39
2022/03/16 07:00:14;;;;;;;59.40;34.73;;;8.20;99.90;;;;;;5022706;28;20215;-39
2022/03/16 07:03:03;;;;;;;58.43;33.53;;;8.20;99.90;;;;;;5022527;28;20258;-38
2022/03/16 07:05:30;;;;;;;62.10;33.63;;;8.20;99.90;;;;;;5017562;28;20186;-38
2022/03/16 07:07:58;;;;;;;55.77;30.90;;;8.20;99.90;;;;;;5027402;28;20259;-39
2022/03/16 07:10:24;;;;;;;57.47;33.07;;;8.20;99.90;;;;;;5021092;28;20268;-40
2022/03/16 07:12:51;;;;;;;59.37;31.87;;;8.20;99.90;;;;;;5027479;28;20223;-39
2022/03/16 07:15:18;;;;;;;59.77;35.03;;;8.20;99.90;;;;;;5029531;28;20174;-38
2022/03/16 07:17:45;;;;;;;55.90;32.43;;;8.20;99.90;;;;;;5029977;28;20182;-40
2022/03/16 07:20:11;;;;;;;61.73;35.47;;;8.20;99.90;;;;;;5017069;28;20230;-38
2022/03/16 07:22:38;;;;;;;62.37;35.87;;;8.30;99.90;;;;;;5028386;28;20175;-39
2022/03/16 07:25:05;;;;;;;62.03;34.93;;;8.30;99.90;;;;;;5027121;28;20217;-39
2022/03/16 07:27:31;;;;;;;59.47;34.73;;;8.30;99.90;;;;;;5035798;28;20237;-41
2022/03/16 07:29:57;;;;;;;61.50;35.23;;;8.30;99.90;;;;;;5023722;28;20210;-41
2022/03/16 07:32:23;;;;;;;63.63;35.67;;;8.30;99.90;;;;;;5012862;28;20179;-39
2022/03/16 07:34:49;;;;;;;56.80;34.63;;;8.30;99.90;;;;;;5031022;28;20186;-35
2022/03/16 07:37:16;;;;;;;59.07;34.87;;;8.40;99.90;;;;;;5029363;28;20224;-35
2022/03/16 07:39:42;;;;;;;57.63;34.77;;;8.40;99.90;;;;;;5020083;28;20310;-36
2022/03/16 07:42:09;;;;;;;58.60;34.97;;;8.40;99.90;;;;;;5009645;28;20180;-35
2022/03/16 07:44:35;;;;;;;60.73;35.37;;;8.50;99.90;;;;;;5025799;28;20194;-35
2022/03/16 07:47:02;;;;;;;55.87;33.37;;;8.50;99.90;;;;;;4993266;28;20190;-35
2022/03/16 07:49:29;;;;;;;57.30;34.73;;;8.50;99.90;;;;;;4992725;28;20199;-35
2022/03/16 07:51:55;;;;;;;60.63;33.80;;;8.50;99.90;;;;;;4993106;28;20233;-36
2022/03/16 07:54:21;;;;;;;55.00;33.90;;;8.40;99.90;;;;;;5001043;28;20178;-35
2022/03/16 07:56:47;;;;;;;55.03;33.57;;;8.50;99.90;;;;;;5043454;28;20179;-36
2022/03/16 07:59:14;;;;;;;55.80;33.50;;;8.50;99.90;;;;;;5036027;28;20214;-37
2022/03/16 08:01:41;;;;;;;52.80;33.47;;;8.60;99.90;;;;;;5026144;28;20233;-36
2022/03/16 08:04:07;;;;;;;55.67;33.40;;;8.60;99.90;;;;;;5028784;28;20175;-36
2022/03/16 08:06:34;;;;;;;50.43;31.47;;;8.60;99.90;;;;;;5029156;28;20191;-35
2022/03/16 08:09:00;;;;;;;51.67;33.03;;;8.70;99.90;;;;;;5028894;28;20248;-36
2022/03/16 08:11:25;;;;;;;51.43;30.93;;;8.70;99.90;;;;;;5029131;28;20180;-37
2022/03/16 08:13:51;;;;;;;53.77;32.27;;;8.70;99.90;;;;;;5029146;28;20183;-36
2022/03/16 08:16:17;;;;;;;47.90;29.50;;;8.80;99.90;;;;;;5029235;28;20242;-35
2022/03/16 08:18:43;;;;;;;50.80;30.03;;;8.80;99.90;;;;;;5028898;28;20205;-35
2022/03/16 08:21:09;;;;;;;49.63;30.60;;;8.90;99.90;;;;;;5028639;28;20266;-35
2022/03/16 08:23:35;;;;;;;49.77;31.70;;;8.90;99.90;;;;;;5013007;28;20182;-35
2022/03/16 08:26:00;;;;;;;49.33;30.50;;;8.90;99.90;;;;;;5030985;28;20189;-37
2022/03/16 08:28:26;;;;;;;51.93;32.43;;;9.00;99.90;;;;;;5015834;28;20218;-35
2022/03/16 08:30:53;;;;;;;53.73;32.77;;;9.00;99.90;;;;;;5032285;28;20663;-36
2022/03/16 08:33:19;;;;;;;55.33;34.00;;;9.10;99.90;;;;;;5016441;28;20198;-39
2022/03/16 08:35:46;;;;;;;53.93;33.43;;;9.10;99.90;;;;;;5032963;28;20225;-38
2022/03/16 08:38:11;;;;;;;54.80;34.77;;;9.10;99.90;;;;;;5032293;28;20216;-38
2022/03/16 08:40:37;;;;;;;53.30;33.33;;;9.10;99.90;;;;;;5031857;28;20226;-38
2022/03/16 08:43:04;;;;;;;52.13;33.20;;;9.20;99.90;;;;;;5032386;28;20214;-38
2022/03/16 08:45:29;;;;;;;54.13;33.70;;;9.20;99.90;;;;;;5032298;28;20190;-39
2022/03/16 08:47:55;;;;;;;56.77;33.03;;;9.20;99.90;;;;;;5032112;28;20206;-39
2022/03/16 08:50:21;;;;;;;51.97;33.17;;;9.20;99.90;;;;;;5032167;28;20205;-38
2022/03/16 08:52:47;;;;;;;50.30;32.00;;;9.30;99.90;;;;;;5032331;28;20182;-40
2022/03/16 08:55:15;;;;;;;55.53;34.20;;;9.30;99.90;;;;;;5031878;28;20178;-39
2022/03/16 08:57:44;;;;;;;52.30;33.13;;;9.30;99.90;;;;;;5032000;28;20197;-40
2022/03/16 09:00:15;;;;;;;52.53;32.97;;;9.40;99.90;;;;;;5031278;28;20230;-39
2022/03/16 09:02:41;;;;;;;53.87;33.07;;;9.40;99.90;;;;;;5048695;28;20513;-39
2022/03/16 09:05:08;;;;;;;62.50;35.73;;;9.50;99.90;;;;;;5031851;28;20213;-39
2022/03/16 09:07:35;;;;;;;55.67;35.57;;;9.40;99.90;;;;;;5048530;28;20213;-40
2022/03/16 09:10:02;;;;;;;60.50;35.87;;;9.40;99.90;;;;;;5031403;28;20198;-39
2022/03/16 09:12:28;;;;;;;56.03;36.40;;;9.40;99.90;;;;;;5031827;28;20170;-38
2022/03/16 09:14:55;;;;;;;57.63;35.00;;;9.40;99.90;;;;;;5031660;28;20742;-39
2022/03/16 09:17:21;;;;;;;59.23;36.60;;;9.40;99.90;;;;;;5031802;28;20284;-39
2022/03/16 09:19:48;;;;;;;57.10;35.23;;;9.40;99.90;;;;;;5032995;28;20195;-38
2022/03/16 09:22:14;;;;;;;59.80;34.90;;;9.50;99.90;;;;;;5048229;28;20213;-39
2022/03/16 09:24:40;;;;;;;61.33;35.83;;;9.50;99.90;;;;;;5047910;28;20186;-41
2022/03/16 09:27:07;;;;;;;62.57;37.10;;;9.60;99.90;;;;;;5031722;28;20256;-39
2022/03/16 09:29:33;;;;;;;59.93;35.87;;;9.60;99.90;;;;;;5030896;28;20246;-39
2022/03/16 09:31:59;;;;;;;54.50;34.57;;;9.60;99.90;;;;;;5047990;28;20229;-40
2022/03/16 09:34:25;;;;;;;55.30;34.20;;;9.70;99.90;;;;;;5032039;28;20174;-38
2022/03/16 09:36:51;;;;;;;55.67;34.83;;;9.60;99.90;;;;;;5046749;28;20179;-40
2022/03/16 09:39:17;;;;;;;53.07;32.97;;;9.70;99.90;;;;;;5047466;28;20212;-39
2022/03/16 09:41:43;;;;;;;45.97;30.87;;;9.80;99.90;;;;;;5047529;28;20220;-39
2022/03/16 09:44:10;;;;;;;49.23;31.73;;;9.80;99.90;;;;;;5031009;28;20183;-38
2022/03/16 09:46:37;;;;;;;48.10;31.23;;;10.00;99.90;;;;;;5047673;28;20212;-39
2022/03/16 09:49:07;;;;;;;49.10;30.70;;;10.10;99.90;;;;;;5047602;28;20250;-39
2022/03/16 09:51:35;;;;;;;43.50;30.03;;;10.20;99.90;;;;;;5030815;28;20189;-39
2022/03/16 09:54:08;;;;;;;53.90;33.20;;;10.30;99.90;;;;;;5030980;28;20201;-39
2022/03/16 09:56:34;;;;;;;47.37;31.00;;;10.40;99.90;;;;;;5031018;28;20176;-39
2022/03/16 09:59:00;;;;;;;45.17;28.97;;;10.50;99.90;;;;;;5047213;28;20659;-39
2022/03/16 10:01:27;;;;;;;40.93;28.57;;;10.60;99.90;;;;;;5031111;28;20216;-39
2022/03/16 10:03:58;;;;;;;43.60;30.30;;;10.50;99.90;;;;;;5030866;28;20185;-39
2022/03/16 10:06:24;;;;;;;42.70;27.87;;;10.60;99.90;;;;;;5030635;28;20181;-42
2022/03/16 10:14:19;;;;;;;42.00;28.20;;;11.00;99.90;;;;;;5031936;28;20202;-37
2022/03/16 10:19:53;;;;;;;44.47;29.13;;;11.20;99.90;;;;;;5030522;28;20287;-37
2022/03/16 10:22:30;;;;;;;43.53;28.67;;;11.40;99.90;;;;;;5014004;28;20178;-36
2022/03/16 10:25:00;;;;;;;42.97;28.77;;;11.30;99.90;;;;;;5030332;28;20186;-36
2022/03/16 10:27:26;;;;;;;39.23;27.13;;;11.40;99.90;;;;;;5030241;28;20207;-38
2022/03/16 10:29:52;;;;;;;41.60;28.03;;;11.50;99.90;;;;;;5029975;28;20327;-36
2022/03/16 10:32:21;;;;;;;39.63;28.03;;;11.60;99.90;;;;;;5047118;28;20283;-36
2022/03/16 10:34:55;;;;;;;39.03;25.80;;;11.80;99.90;;;;;;5047684;28;20187;-39
2022/03/16 10:37:23;;;;;;;38.77;26.17;;;12.00;99.90;;;;;;5030039;28;20188;-39
2022/03/16 10:39:52;;;;;;;33.60;24.43;;;12.20;99.90;;;;;;5029643;28;20608;-40
2022/03/16 10:48:25;;;;;;;32.93;22.83;;;12.30;99.90;;;;;;5046497;28;20268;-39
2022/03/16 10:50:57;;;;;;;34.47;24.23;;;12.40;99.90;;;;;;5046649;28;20229;-39
2022/03/16 10:53:30;;;;;;;32.33;24.20;;;12.50;99.90;;;;;;5046830;28;20283;-39
2022/03/16 10:55:59;;;;;;;34.63;24.57;;;12.60;99.90;;;;;;5046373;28;20193;-40
2022/03/16 10:58:27;;;;;;;34.57;23.70;;;12.80;99.90;;;;;;5046489;28;20226;-40
2022/03/16 11:00:56;;;;;;;33.27;23.70;;;12.90;99.90;;;;;;5029713;28;20229;-40
2022/03/16 11:03:25;;;;;;;31.70;22.07;;;13.00;99.90;;;;;;5013587;28;20178;-39
2022/03/16 11:05:51;;;;;;;29.30;21.57;;;13.10;99.90;;;;;;5029856;28;20178;-39
2022/03/16 11:08:19;;;;;;;34.33;22.13;;;13.10;99.90;;;;;;5029972;28;20217;-39
2022/03/16 11:10:46;;;;;;;27.53;20.80;;;13.10;99.90;;;;;;5029166;28;20225;-40
2022/03/16 11:13:32;;;;;;;29.43;20.93;;;13.10;99.90;;;;;;5029454;28;20541;-40
2022/03/16 11:16:00;;;;;;;26.43;20.03;;;13.20;99.90;;;;;;5029842;28;20217;-39
2022/03/16 11:18:26;;;;;;;28.57;20.47;;;13.30;99.90;;;;;;5029494;28;20186;-39
2022/03/16 11:21:09;;;;;;;28.70;20.90;;;13.40;99.90;;;;;;5030637;28;20793;-41
2022/03/16 11:26:48;;;;;;;24.17;19.17;;;13.60;99.90;;;;;;5031046;28;20252;-41
2022/03/16 11:29:29;;;;;;;24.77;19.13;;;13.70;99.90;;;;;;5029314;28;20214;-40
2022/03/16 11:32:16;;;;;;;24.67;19.53;;;13.80;99.90;;;;;;5029360;28;20221;-39
2022/03/16 11:34:59;;;;;;;26.47;19.90;;;13.80;99.90;;;;;;5046594;28;20248;-40
2022/03/16 11:37:40;;;;;;;23.83;18.97;;;13.90;99.90;;;;;;5046074;28;20174;-40
2022/03/16 11:40:14;;;;;;;25.37;19.13;;;13.90;99.90;;;;;;5029149;28;20244;-40
2022/03/16 11:43:05;;;;;;;23.13;19.80;;;14.00;99.90;;;;;;5046220;28;20194;-39
2022/03/16 11:45:32;;;;;;;23.47;18.80;;;14.00;99.90;;;;;;5046043;28;20190;-41
2022/03/16 11:47:58;;;;;;;26.07;17.87;;;14.00;99.90;;;;;;5029597;28;20264;-40
2022/03/16 11:50:24;;;;;;;22.73;17.60;;;14.10;99.90;;;;;;5045590;28;20289;-41
2022/03/16 11:53:00;;;;;;;22.60;17.37;;;14.10;99.90;;;;;;5045902;28;20201;-39
2022/03/16 11:55:48;;;;;;;23.17;18.07;;;14.10;99.90;;;;;;5029218;28;20189;-40
2022/03/16 11:58:16;;;;;;;28.67;17.30;;;14.10;99.90;;;;;;5030718;28;20191;-40
2022/03/16 12:00:44;;;;;;;23.83;17.43;;;14.00;99.90;;;;;;5030631;28;20233;-40
2022/03/16 12:03:20;;;;;;;21.30;17.00;;;14.00;99.90;;;;;;5033140;28;20222;-38
2022/03/16 12:05:58;;;;;;;18.70;15.37;;;14.00;99.90;;;;;;5034065;28;20175;-41
2022/03/16 12:08:29;;;;;;;19.23;15.90;;;14.00;99.90;;;;;;5016126;28;20206;-39
2022/03/16 12:12:51;;;;;;;19.23;15.00;;;13.90;99.90;;;;;;5032058;28;20191;-39
2022/03/16 12:13:48;;;;;;;18.07;14.90;;;13.80;99.90;;;;;;5022909;28;20257;-42
2022/03/16 12:16:18;;;;;;;15.23;12.33;;;13.90;99.90;;;;;;5037901;28;20218;-39
2022/03/16 12:18:47;;;;;;;18.40;12.80;;;13.90;99.90;;;;;;5039249;28;20175;-42
2022/03/16 12:21:14;;;;;;;14.07;11.63;;;13.90;99.90;;;;;;5023287;28;20252;-41
2022/03/16 12:23:45;;;;;;;19.10;11.97;;;13.80;99.90;;;;;;5024273;28;20180;-39
2022/03/16 12:26:12;;;;;;;16.10;12.13;;;13.90;99.90;;;;;;5032069;28;20277;-39
2022/03/16 12:28:56;;;;;;;13.63;11.97;;;13.90;99.90;;;;;;5020834;28;20299;-44
2022/03/16 12:31:22;;;;;;;20.10;13.73;;;14.00;99.90;;;;;;5030264;28;20202;-42
2022/03/16 12:33:58;;;;;;;16.40;13.00;;;14.00;99.90;;;;;;5038330;28;20255;-38
2022/03/16 12:36:32;;;;;;;21.23;13.17;;;14.00;99.90;;;;;;5049760;28;20232;-37
2022/03/16 12:39:03;;;;;;;17.40;13.73;;;13.90;99.90;;;;;;5015827;28;20190;-39
2022/03/16 12:44:45;;;;;;;17.20;13.80;;;13.90;99.90;;;;;;5044778;28;20289;-36
2022/03/16 12:47:25;;;;;;;17.73;13.30;;;13.90;99.90;;;;;;4997218;28;20246;-37
2022/03/16 12:49:52;;;;;;;18.07;12.57;;;13.80;99.90;;;;;;5033302;28;20239;-37
2022/03/16 12:52:18;;;;;;;16.90;12.80;;;13.80;99.90;;;;;;5033539;28;20198;-37
2022/03/16 12:54:44;;;;;;;16.73;12.63;;;13.80;99.90;;;;;;5048936;28;20217;-38
2022/03/16 12:57:12;;;;;;;17.10;12.30;;;13.80;99.90;;;;;;5028284;28;20171;-38